createdAt,value
2019-05-03T00:02:26.291Z,11.70
2019-05-03T00:05:26.745Z,11.70
2019-05-03T00:08:04.396Z,11.50
2019-05-03T00:10:32.722Z,11.50
2019-05-03T00:13:01.884Z,11.50
2019-05-03T00:15:49.115Z,11.50
2019-05-03T00:18:16.942Z,11.50
2019-05-03T00:20:44.321Z,11.50
2019-05-03T00:23:12.091Z,11.50
2019-05-03T00:25:41.483Z,11.50
2019-05-03T00:28:08.981Z,11.50
2019-05-03T00:30:36.382Z,11.50
2019-05-03T00:33:04.010Z,11.40
2019-05-03T00:35:51.838Z,11.40
2019-05-03T00:38:19.404Z,11.50
2019-05-03T00:40:46.869Z,11.50
2019-05-03T00:43:14.483Z,11.40
2019-05-03T00:45:42.291Z,11.40
2019-05-03T00:48:09.649Z,11.40
2019-05-03T00:50:36.972Z,11.40
2019-05-03T00:53:04.292Z,11.40
2019-05-03T00:55:32.793Z,11.30
2019-05-03T00:58:02.331Z,11.20
2019-05-03T01:00:30.026Z,11.30
2019-05-03T01:02:57.472Z,11.20
2019-05-03T01:05:25.306Z,11.30
2019-05-03T01:07:52.740Z,11.20
2019-05-03T01:10:20.066Z,11.20
2019-05-03T01:12:47.816Z,11.20
2019-05-03T01:15:23.172Z,11.30
2019-05-03T01:17:52.445Z,11.10
2019-05-03T01:20:20.177Z,11.00
2019-05-03T01:22:47.516Z,11.00
2019-05-03T01:25:14.871Z,11.00
2019-05-03T01:27:43.282Z,11.00
2019-05-03T01:30:11.919Z,11.00
2019-05-03T01:32:39.374Z,10.90
2019-05-03T01:35:07.133Z,10.80
2019-05-03T01:37:34.767Z,10.80
2019-05-03T01:40:02.523Z,10.70
2019-05-03T01:42:31.936Z,10.50
2019-05-03T01:45:01.546Z,10.50
2019-05-03T01:47:36.718Z,10.50
2019-05-03T01:50:12.785Z,10.50
2019-05-03T01:52:41.973Z,10.40
2019-05-03T01:55:13.970Z,10.40
2019-05-03T01:57:39.401Z,10.40
2019-05-03T02:00:12.403Z,10.30
2019-05-03T02:02:59.292Z,10.40
2019-05-03T02:05:43.038Z,10.30
2019-05-03T02:08:12.746Z,10.20
2019-05-03T02:10:40.103Z,9.30
2019-05-03T02:13:07.799Z,10.10
2019-05-03T02:15:35.139Z,10.10
2019-05-03T02:18:03.094Z,10.10
2019-05-03T02:20:32.280Z,10.00
2019-05-03T02:22:59.800Z,10.00
2019-05-03T02:25:27.159Z,10.00
2019-05-03T02:27:54.631Z,9.90
2019-05-03T02:30:24.706Z,9.90
2019-05-03T02:32:53.324Z,9.90
2019-05-03T02:35:22.751Z,10.00
2019-05-03T02:37:53.442Z,10.00
2019-05-03T02:40:24.537Z,10.10
2019-05-03T02:43:08.046Z,10.00
2019-05-03T02:45:40.916Z,10.10
2019-05-03T02:48:16.624Z,10.10
2019-05-03T02:50:45.245Z,10.10
2019-05-03T02:53:12.717Z,10.00
2019-05-03T02:55:40.211Z,10.10
2019-05-03T02:58:07.898Z,10.20
2019-05-03T03:00:56.066Z,10.00
2019-05-03T03:03:25.472Z,10.00
2019-05-03T03:05:56.103Z,10.00
2019-05-03T03:08:26.684Z,10.00
2019-05-03T03:10:59.275Z,10.00
2019-05-03T03:13:29.550Z,10.00
2019-05-03T03:16:01.463Z,10.00
2019-05-03T03:18:32.393Z,10.00
2019-05-03T03:20:59.752Z,9.90
2019-05-03T03:23:31.559Z,9.90
2019-05-03T03:26:02.557Z,10.00
2019-05-03T03:28:32.722Z,10.00
2019-05-03T03:31:30.654Z,10.00
2019-05-03T03:34:01.647Z,10.00
2019-05-03T03:36:53.257Z,10.00
2019-05-03T03:39:01.329Z,10.00
2019-05-03T03:41:29.997Z,10.00
2019-05-03T03:43:57.955Z,10.00
2019-05-03T03:46:27.216Z,10.00
2019-05-03T03:48:56.032Z,9.90
2019-05-03T03:51:26.150Z,9.90
2019-05-03T03:53:55.458Z,9.90
2019-05-03T03:56:25.579Z,9.90
2019-05-03T03:58:55.386Z,10.00
2019-05-03T04:01:22.369Z,9.90
2019-05-03T04:03:49.653Z,9.90
2019-05-03T04:06:17.295Z,10.00
2019-05-03T04:08:45.353Z,9.90
2019-05-03T04:11:15.425Z,9.90
2019-05-03T04:13:45.201Z,9.90
2019-05-03T04:16:36.333Z,10.00
2019-05-03T04:19:08.524Z,9.90
2019-05-03T04:21:36.107Z,10.00
2019-05-03T04:24:05.888Z,9.90
2019-05-03T04:26:35.618Z,9.90
2019-05-03T04:29:05.438Z,9.90
2019-05-03T04:31:32.561Z,9.90
2019-05-03T04:33:59.997Z,9.90
2019-05-03T04:36:27.441Z,9.90
2019-05-03T04:38:56.213Z,9.80
2019-05-03T04:41:26.627Z,9.90
2019-05-03T04:43:55.389Z,9.80
2019-05-03T04:46:25.838Z,9.80
2019-05-03T04:48:55.903Z,9.80
2019-05-03T04:51:22.322Z,9.90
2019-05-03T04:53:55.818Z,9.90
2019-05-03T04:56:25.156Z,9.90
2019-05-03T04:58:52.452Z,9.90
2019-05-03T05:01:20.112Z,9.90
2019-05-03T05:03:47.477Z,10.00
2019-05-03T05:06:15.591Z,10.00
2019-05-03T05:08:45.848Z,10.10
2019-05-03T05:11:15.564Z,10.20
2019-05-03T05:13:42.726Z,10.30
2019-05-03T05:16:10.431Z,10.30
2019-05-03T05:18:45.786Z,10.20
2019-05-03T05:21:25.561Z,9.90
2019-05-03T05:23:58.322Z,10.00
2019-05-03T05:26:29.248Z,10.10
2019-05-03T05:28:59.679Z,10.10
2019-05-03T05:31:26.994Z,10.30
2019-05-03T05:33:54.577Z,10.40
2019-05-03T05:36:22.171Z,10.60
2019-05-03T05:38:49.626Z,10.70
2019-05-03T05:41:17.259Z,10.70
2019-05-03T05:43:44.814Z,10.50
2019-05-03T05:46:14.499Z,10.50
2019-05-03T05:48:46.739Z,10.30
2019-05-03T05:51:15.974Z,10.40
2019-05-03T05:53:44.731Z,10.30
2019-05-03T05:56:30.554Z,10.30
2019-05-03T05:59:04.934Z,10.40
2019-05-03T06:01:40.016Z,10.50
2019-05-03T06:04:10.003Z,10.30
2019-05-03T06:06:59.752Z,10.30
2019-05-03T06:09:39.571Z,10.30
2019-05-03T06:12:29.467Z,10.30
2019-05-03T06:15:00.046Z,10.30
2019-05-03T06:17:34.828Z,10.10
2019-05-03T06:20:40.624Z,10.00
2019-05-03T06:23:19.800Z,10.10
2019-05-03T06:25:47.135Z,10.00
2019-05-03T06:28:35.248Z,9.90
2019-05-03T06:31:21.134Z,10.00
2019-05-03T06:33:48.467Z,10.10
2019-05-03T06:36:15.833Z,10.00
2019-05-03T06:38:44.711Z,10.00
2019-05-03T06:41:12.333Z,10.00
2019-05-03T06:43:45.068Z,10.00
2019-05-03T06:46:09.440Z,10.20
2019-05-03T06:48:36.888Z,10.30
2019-05-03T06:51:06.044Z,10.30
2019-05-03T06:53:34.577Z,10.80
2019-05-03T06:56:02.182Z,10.10
2019-05-03T06:58:33.055Z,10.00
2019-05-03T07:01:11.338Z,10.00
2019-05-03T07:03:44.851Z,10.00
2019-05-03T07:06:45.098Z,9.90
2019-05-03T07:09:29.915Z,9.90
2019-05-03T07:11:57.250Z,10.00
2019-05-03T07:14:24.763Z,10.00
2019-05-03T07:16:52.229Z,10.10
2019-05-03T07:19:19.568Z,10.20
2019-05-03T07:21:47.012Z,10.10
2019-05-03T07:24:14.745Z,10.10
2019-05-03T07:26:44.669Z,10.20
2019-05-03T07:29:12.114Z,10.10
2019-05-03T07:31:39.837Z,10.20
2019-05-03T07:34:07.181Z,10.20
2019-05-03T07:36:35.547Z,10.20
2019-05-03T07:39:05.611Z,10.50
2019-05-03T07:41:35.392Z,10.50
2019-05-03T07:44:05.208Z,10.50
2019-05-03T07:46:32.261Z,10.10
2019-05-03T07:49:00.007Z,9.80
2019-05-03T07:51:27.546Z,9.60
2019-05-03T07:53:55.536Z,9.70
2019-05-03T07:56:26.101Z,9.70
2019-05-03T07:59:02.669Z,9.80
2019-05-03T08:01:35.628Z,10.00
2019-05-03T08:04:05.501Z,10.20
2019-05-03T08:06:34.596Z,10.00
2019-05-03T08:09:02.380Z,10.00
2019-05-03T08:11:30.070Z,10.20
2019-05-03T08:13:58.082Z,10.20
2019-05-03T08:16:25.413Z,10.40
2019-05-03T08:18:52.783Z,10.60
2019-05-03T08:21:20.268Z,10.80
2019-05-03T08:23:47.823Z,10.80
2019-05-03T08:26:15.378Z,11.30
2019-05-03T08:28:44.476Z,10.90
2019-05-03T08:31:26.504Z,10.90
2019-05-03T08:34:04.830Z,10.80
2019-05-03T08:36:51.864Z,10.90
2019-05-03T08:39:19.337Z,11.50
2019-05-03T08:41:56.658Z,11.80
2019-05-03T08:44:25.022Z,11.60
2019-05-03T08:46:56.264Z,11.60
2019-05-03T08:49:22.128Z,11.30
2019-05-03T08:51:49.924Z,11.20
2019-05-03T08:54:17.307Z,10.90
2019-05-03T08:56:45.175Z,10.90
2019-05-03T08:59:26.557Z,10.70
2019-05-03T09:01:42.067Z,10.60
2019-05-03T09:04:09.815Z,10.80
2019-05-03T09:06:37.193Z,11.00
2019-05-03T09:09:07.417Z,11.00
2019-05-03T09:11:36.798Z,11.50
2019-05-03T09:14:06.540Z,12.10
2019-05-03T09:16:35.563Z,12.60
2019-05-03T09:19:05.385Z,13.60
2019-05-03T09:21:32.355Z,15.70
2019-05-03T09:23:59.699Z,15.00
2019-05-03T09:26:29.514Z,15.00
2019-05-03T09:28:56.566Z,14.60
2019-05-03T09:31:24.665Z,14.80
2019-05-03T09:33:54.568Z,14.60
2019-05-03T09:36:21.860Z,13.80
2019-05-03T09:38:49.195Z,13.60
2019-05-03T09:41:16.518Z,13.50
2019-05-03T09:43:45.013Z,13.70
2019-05-03T09:46:14.527Z,13.80
2019-05-03T09:48:42.195Z,13.60
2019-05-03T09:51:09.507Z,13.80
2019-05-03T09:53:44.996Z,15.20
2019-05-03T09:56:12.337Z,17.40
2019-05-03T09:58:39.836Z,18.40
2019-05-03T10:01:08.633Z,18.80
2019-05-03T10:03:36.618Z,20.70
2019-05-03T10:06:04.151Z,21.10
2019-05-03T10:08:31.571Z,20.00
2019-05-03T10:11:11.200Z,19.90
2019-05-03T10:13:41.680Z,19.20
2019-05-03T10:16:07.963Z,18.00
2019-05-03T10:18:35.545Z,16.10
2019-05-03T10:21:05.309Z,15.30
2019-05-03T10:23:39.204Z,14.80
2019-05-03T10:26:06.850Z,14.00
2019-05-03T10:28:34.268Z,13.70
2019-05-03T10:31:04.960Z,13.90
2019-05-03T10:33:36.467Z,16.20
2019-05-03T10:36:05.464Z,16.50
2019-05-03T10:38:32.963Z,16.30
2019-05-03T10:41:00.691Z,17.70
2019-05-03T10:43:28.040Z,19.90
2019-05-03T10:45:55.844Z,20.80
2019-05-03T10:48:24.833Z,19.80
2019-05-03T10:50:52.519Z,18.30
2019-05-03T10:53:27.616Z,18.10
2019-05-03T10:56:14.793Z,17.20
2019-05-03T10:58:45.319Z,19.50
2019-05-03T11:01:14.357Z,18.80
2019-05-03T11:03:41.705Z,17.70
2019-05-03T11:06:09.410Z,17.30
2019-05-03T11:08:36.791Z,19.10
2019-05-03T11:11:05.938Z,20.40
2019-05-03T11:13:34.962Z,19.00
2019-05-03T11:16:02.567Z,16.60
2019-05-03T11:18:30.023Z,16.40
2019-05-03T11:20:57.364Z,17.50
2019-05-03T11:23:25.162Z,16.50
2019-05-03T11:25:52.681Z,16.30
2019-05-03T11:28:24.959Z,18.00
2019-05-03T11:30:59.105Z,19.30
2019-05-03T11:36:20.055Z,21.70
2019-05-03T11:38:47.887Z,19.10
2019-05-03T11:41:23.347Z,19.30
2019-05-03T11:43:44.579Z,20.30
2019-05-03T11:46:11.985Z,19.40
2019-05-03T11:48:39.574Z,19.20
2019-05-03T11:51:06.959Z,18.10
2019-05-03T11:53:35.658Z,16.80
2019-05-03T11:56:05.421Z,16.60
2019-05-03T11:58:34.607Z,15.50
2019-05-03T12:01:21.509Z,15.70
2019-05-03T12:04:02.431Z,17.60
2019-05-03T12:06:29.837Z,17.20
2019-05-03T12:08:57.462Z,17.00
2019-05-03T12:11:25.852Z,16.60
2019-05-03T12:14:10.307Z,16.80
2019-05-03T12:17:12.313Z,17.80
2019-05-03T12:19:17.168Z,17.10
2019-05-03T12:21:38.494Z,17.60
2019-05-03T12:24:07.037Z,18.30
2019-05-03T12:26:43.740Z,18.60
2019-05-03T12:29:04.610Z,19.00
2019-05-03T12:31:39.544Z,19.20
2019-05-03T12:34:01.973Z,18.70
2019-05-03T12:36:30.043Z,17.80
2019-05-03T12:38:57.520Z,16.20
2019-05-03T12:41:25.454Z,16.70
2019-05-03T12:43:55.034Z,16.90
2019-05-03T12:46:22.382Z,16.70
2019-05-03T12:48:49.929Z,17.00
2019-05-03T12:51:17.372Z,17.00
2019-05-03T12:53:45.315Z,17.10
2019-05-03T12:56:14.291Z,17.50
2019-05-03T12:58:51.611Z,17.20
2019-05-03T13:01:48.300Z,16.40
2019-05-03T13:04:18.879Z,16.00
2019-05-03T13:06:51.735Z,16.40
2019-05-03T13:09:19.096Z,16.70
2019-05-03T13:11:55.282Z,17.20
2019-05-03T13:14:17.756Z,16.90
2019-05-03T13:16:45.108Z,16.70
2019-05-03T13:19:15.107Z,15.60
2019-05-03T13:21:42.355Z,15.50
2019-05-03T13:24:22.521Z,16.50
2019-05-03T13:26:39.368Z,16.00
2019-05-03T13:29:07.278Z,15.60
2019-05-03T13:31:34.824Z,15.20
2019-05-03T13:34:02.202Z,15.00
2019-05-03T13:36:29.805Z,14.80
2019-05-03T13:39:11.430Z,15.00
2019-05-03T13:41:26.563Z,14.90
2019-05-03T13:43:54.881Z,15.00
2019-05-03T13:46:24.478Z,14.90
2019-05-03T13:48:51.683Z,14.30
2019-05-03T13:51:19.076Z,14.20
2019-05-03T13:53:46.526Z,14.20
2019-05-03T13:56:15.271Z,14.40
2019-05-03T13:58:44.446Z,15.10
2019-05-03T14:01:12.057Z,14.90
2019-05-03T14:03:39.441Z,15.00
2019-05-03T14:06:09.178Z,15.20
2019-05-03T14:08:36.603Z,15.50
2019-05-03T14:11:05.119Z,15.30
2019-05-03T14:13:35.088Z,14.90
2019-05-03T14:16:02.340Z,14.80
2019-05-03T14:18:29.869Z,14.80
2019-05-03T14:21:16.222Z,14.80
2019-05-03T14:24:01.719Z,14.90
2019-05-03T14:26:29.056Z,14.70
2019-05-03T14:28:56.438Z,14.10
2019-05-03T14:31:25.233Z,14.30
2019-05-03T14:33:52.785Z,14.10
2019-05-03T14:36:20.645Z,14.30
2019-05-03T14:38:48.588Z,14.90
2019-05-03T14:41:15.993Z,14.90
2019-05-03T14:43:44.044Z,14.50
2019-05-03T14:46:11.392Z,13.20
2019-05-03T14:48:38.850Z,14.40
2019-05-03T14:51:06.383Z,14.00
2019-05-03T14:53:34.851Z,14.30
2019-05-03T14:56:09.682Z,14.10
2019-05-03T14:59:05.966Z,14.00
2019-05-03T15:01:39.137Z,14.20
2019-05-03T15:04:07.317Z,13.90
2019-05-03T15:06:35.394Z,13.60
2019-05-03T15:09:05.397Z,13.30
2019-05-03T15:11:34.550Z,13.30
2019-05-03T15:14:02.040Z,13.40
2019-05-03T15:16:29.828Z,13.10
2019-05-03T15:18:57.272Z,13.10
2019-05-03T15:21:25.226Z,13.30
2019-05-03T15:23:54.682Z,13.70
2019-05-03T15:26:22.289Z,13.90
2019-05-03T15:28:49.820Z,14.10
2019-05-03T15:31:17.142Z,14.10
2019-05-03T15:33:44.995Z,13.90
2019-05-03T15:36:12.653Z,14.10
2019-05-03T15:38:40.277Z,14.20
2019-05-03T15:41:08.009Z,14.40
2019-05-03T15:43:42.434Z,14.50
2019-05-03T15:46:20.010Z,14.40
2019-05-03T15:48:50.383Z,14.20
2019-05-03T15:51:17.790Z,14.40
2019-05-03T15:53:45.279Z,14.20
2019-05-03T15:56:14.519Z,14.30
2019-05-03T15:58:44.379Z,14.20
2019-05-03T16:01:11.454Z,14.50
2019-05-03T16:03:38.893Z,14.60
2019-05-03T16:06:06.235Z,14.80
2019-05-03T16:08:33.967Z,15.00
2019-05-03T16:11:01.430Z,14.40
2019-05-03T16:13:28.797Z,14.40
2019-05-03T16:15:56.194Z,14.30
2019-05-03T16:18:24.529Z,14.70
2019-05-03T16:20:52.184Z,15.10
2019-05-03T16:23:19.868Z,14.20
2019-05-03T16:25:47.530Z,13.70
2019-05-03T16:28:20.651Z,12.90
2019-05-03T16:30:55.478Z,13.40
2019-05-03T16:33:27.596Z,13.40
2019-05-03T16:35:52.331Z,13.30
2019-05-03T16:38:19.628Z,13.60
2019-05-03T16:40:47.353Z,13.60
2019-05-03T16:43:16.140Z,13.70
2019-05-03T16:45:44.584Z,13.60
2019-05-03T16:48:12.049Z,13.30
2019-05-03T16:50:39.421Z,13.20
2019-05-03T16:53:06.831Z,13.20
2019-05-03T16:55:35.159Z,13.00
2019-05-03T16:58:03.084Z,12.90
2019-05-03T17:00:30.535Z,12.80
2019-05-03T17:02:58.301Z,12.70
2019-05-03T17:05:41.322Z,12.50
2019-05-03T17:08:40.258Z,12.50
2019-05-03T17:11:09.839Z,12.60
2019-05-03T17:13:37.242Z,12.60
2019-05-03T17:16:05.112Z,12.60
2019-05-03T17:18:35.301Z,12.60
2019-05-03T17:21:03.235Z,12.50
2019-05-03T17:23:30.774Z,12.50
2019-05-03T17:25:58.602Z,12.50
2019-05-03T17:28:26.086Z,12.40
2019-05-03T17:30:55.241Z,12.30
2019-05-03T17:33:22.629Z,12.30
2019-05-03T17:35:50.303Z,12.30
2019-05-03T17:38:17.690Z,12.20
2019-05-03T17:41:00.655Z,12.20
2019-05-03T17:43:31.958Z,12.10
2019-05-03T17:45:59.664Z,12.10
2019-05-03T17:48:27.152Z,12.10
2019-05-03T17:50:55.056Z,12.00
2019-05-03T17:53:55.126Z,12.00
2019-05-03T17:56:51.310Z,12.00
2019-05-03T17:59:38.400Z,12.00
2019-05-03T18:02:11.279Z,12.00
2019-05-03T18:05:05.247Z,12.00
2019-05-03T18:07:54.563Z,11.90
2019-05-03T18:10:24.135Z,11.90
2019-05-03T18:12:51.775Z,11.80
2019-05-03T18:15:19.240Z,11.70
2019-05-03T18:17:46.949Z,11.60
2019-05-03T18:20:15.033Z,11.60
2019-05-03T18:22:42.599Z,11.50
2019-05-03T18:25:10.780Z,11.40
2019-05-03T18:27:38.587Z,11.30
2019-05-03T18:30:06.579Z,11.30
2019-05-03T18:32:34.475Z,11.30
2019-05-03T18:35:04.783Z,11.20
2019-05-03T18:37:32.186Z,11.10
2019-05-03T18:39:59.470Z,11.00
2019-05-03T18:42:35.736Z,10.90
2019-05-03T18:45:10.021Z,10.80
2019-05-03T18:47:37.938Z,10.80
2019-05-03T18:50:05.387Z,10.80
2019-05-03T18:52:34.450Z,10.70
2019-05-03T18:55:02.182Z,10.70
2019-05-03T18:57:29.855Z,10.60
2019-05-03T18:59:57.535Z,10.70
2019-05-03T19:02:25.504Z,10.60
2019-05-03T19:04:54.848Z,10.50
2019-05-03T19:07:34.584Z,10.50
2019-05-03T19:10:16.697Z,10.50
2019-05-03T19:13:06.189Z,10.40
2019-05-03T19:15:34.632Z,10.40
2019-05-03T19:18:10.044Z,10.40
2019-05-03T19:20:37.484Z,10.30
2019-05-03T19:23:05.378Z,10.40
2019-05-03T19:25:44.045Z,10.40
2019-05-03T19:28:02.285Z,10.40
2019-05-03T19:30:31.143Z,10.30
2019-05-03T19:32:58.615Z,10.20
2019-05-03T19:35:27.700Z,10.20
2019-05-03T19:37:55.546Z,10.20
2019-05-03T19:40:23.081Z,10.20
2019-05-03T19:42:50.869Z,10.10
2019-05-03T19:45:18.465Z,10.00
2019-05-03T19:47:45.903Z,10.00
2019-05-03T19:50:15.542Z,10.00
2019-05-03T19:53:14.514Z,9.90
2019-05-03T19:55:42.370Z,9.80
2019-05-03T19:58:09.944Z,9.80
2019-05-03T20:00:48.449Z,9.70
2019-05-03T20:03:20.087Z,9.70
2019-05-03T20:06:05.864Z,9.70
2019-05-03T20:08:37.457Z,9.60
2019-05-03T20:11:28.204Z,9.50
2019-05-03T20:13:56.154Z,9.40
2019-05-03T20:16:24.503Z,9.40
2019-05-03T20:18:55.377Z,9.30
2019-05-03T20:21:22.653Z,9.30
2019-05-03T20:23:51.055Z,9.30
2019-05-03T20:26:19.027Z,9.30
2019-05-03T20:28:46.599Z,9.40
2019-05-03T20:31:14.278Z,9.40
2019-05-03T20:33:42.002Z,9.40
2019-05-03T20:36:09.628Z,9.40
2019-05-03T20:38:37.559Z,9.40
2019-05-03T20:41:05.561Z,9.30
2019-05-03T20:43:59.010Z,9.30
2019-05-03T20:46:56.821Z,9.20
2019-05-03T20:49:27.179Z,9.10
2019-05-03T20:51:55.704Z,9.10
2019-05-03T20:54:25.011Z,9.00
2019-05-03T20:56:54.690Z,9.00
2019-05-03T20:59:23.141Z,9.00
2019-05-03T21:01:51.241Z,9.00
2019-05-03T21:04:18.759Z,8.90
2019-05-03T21:06:46.527Z,8.80
2019-05-03T21:09:14.921Z,8.70
2019-05-03T21:11:44.597Z,8.70
2019-05-03T21:14:15.284Z,8.60
2019-05-03T21:17:15.035Z,8.50
2019-05-03T21:19:50.594Z,8.40
2019-05-03T21:22:24.925Z,8.30
2019-05-03T21:25:12.838Z,8.30
2019-05-03T21:27:40.578Z,8.40
2019-05-03T21:30:07.999Z,8.40
2019-05-03T21:32:35.294Z,8.40
2019-05-03T21:35:05.102Z,8.40
2019-05-03T21:37:32.530Z,8.40
2019-05-03T21:40:00.186Z,8.30
2019-05-03T21:42:27.611Z,8.30
2019-05-03T21:44:55.761Z,8.30
2019-05-03T21:47:41.992Z,8.20
2019-05-03T21:50:12.126Z,8.10
2019-05-03T21:52:40.295Z,8.00
2019-05-03T21:55:07.905Z,8.00
2019-05-03T21:57:35.697Z,7.90
2019-05-03T22:00:05.521Z,7.90
2019-05-03T22:02:33.174Z,7.90
2019-05-03T22:05:01.110Z,7.90
2019-05-03T22:07:28.762Z,7.80
2019-05-03T22:09:56.407Z,7.80
2019-05-03T22:12:24.881Z,7.70
2019-05-03T22:14:58.334Z,7.60
2019-05-03T22:17:44.769Z,7.60
2019-05-03T22:20:21.399Z,7.70
2019-05-03T22:23:01.398Z,7.70
2019-05-03T22:25:31.271Z,7.70
2019-05-03T22:27:58.633Z,7.70
2019-05-03T22:30:26.904Z,7.70
2019-05-03T22:32:55.157Z,7.70
2019-05-03T22:35:24.952Z,7.60
2019-05-03T22:37:51.939Z,7.70
2019-05-03T22:40:19.699Z,7.70
2019-05-03T22:42:47.063Z,7.70
2019-05-03T22:45:14.581Z,7.80
2019-05-03T22:47:41.876Z,7.80
2019-05-03T22:50:09.778Z,7.80
2019-05-03T22:52:37.372Z,7.80
2019-05-03T22:55:05.040Z,7.80
2019-05-03T22:57:34.866Z,7.80
2019-05-03T23:00:02.116Z,7.80
2019-05-03T23:02:29.999Z,7.90
2019-05-03T23:04:57.363Z,8.00
2019-05-03T23:07:25.150Z,7.80
2019-05-03T23:09:52.928Z,7.80
2019-05-03T23:12:20.537Z,7.80
2019-05-03T23:14:48.069Z,7.80
2019-05-03T23:17:16.447Z,7.80
2019-05-03T23:19:48.827Z,7.80
2019-05-03T23:22:20.991Z,7.70
2019-05-03T23:24:48.689Z,7.70
2019-05-03T23:27:16.062Z,7.70
2019-05-03T23:29:45.420Z,7.70
2019-05-03T23:32:15.187Z,7.70
2019-05-03T23:34:42.763Z,7.70
2019-05-03T23:37:10.211Z,7.70
2019-05-03T23:39:38.077Z,7.80
2019-05-03T23:42:05.679Z,7.90
2019-05-03T23:44:35.092Z,7.90
2019-05-03T23:47:25.360Z,7.90
2019-05-03T23:49:52.822Z,8.00
2019-05-03T23:52:35.268Z,8.00
2019-05-03T23:55:07.025Z,7.90
2019-05-03T23:57:35.693Z,7.80
